createdAt,value
2022-12-12T00:01:47.794Z,99.90
2022-12-12T00:04:14.945Z,99.90
2022-12-12T00:06:42.233Z,99.90
2022-12-12T00:09:09.600Z,99.90
2022-12-12T00:11:37.216Z,99.90
2022-12-12T00:14:04.853Z,99.90
2022-12-12T00:16:32.580Z,99.90
2022-12-12T00:18:59.725Z,99.90
2022-12-12T00:21:29.203Z,99.90
2022-12-12T00:23:56.889Z,99.90
2022-12-12T00:26:27.308Z,99.90
2022-12-12T00:28:55.203Z,99.90
2022-12-12T00:31:22.631Z,99.90
2022-12-12T00:33:50.322Z,99.90
2022-12-12T00:36:20.319Z,99.90
2022-12-12T00:38:47.938Z,99.90
2022-12-12T00:41:16.360Z,99.90
2022-12-12T00:43:43.725Z,99.90
2022-12-12T00:46:23.267Z,99.90
2022-12-12T00:48:53.286Z,99.90
2022-12-12T00:51:22.241Z,99.90
2022-12-12T00:53:50.326Z,99.90
2022-12-12T00:56:19.818Z,99.90
2022-12-12T00:58:47.091Z,99.90
2022-12-12T01:01:21.168Z,99.90
2022-12-12T01:03:48.643Z,99.90
2022-12-12T01:06:16.162Z,99.90
2022-12-12T01:08:43.860Z,99.90
2022-12-12T01:11:14.018Z,99.90
2022-12-12T01:13:42.447Z,99.90
2022-12-12T01:16:10.406Z,99.90
2022-12-12T01:18:38.332Z,99.90
2022-12-12T01:21:10.299Z,99.90
2022-12-12T01:23:37.984Z,99.90
2022-12-12T01:26:09.135Z,99.90
2022-12-12T01:28:36.321Z,99.90
2022-12-12T01:31:04.025Z,99.90
2022-12-12T01:33:31.236Z,99.90
2022-12-12T01:35:58.592Z,99.90
2022-12-12T01:38:25.669Z,99.90
2022-12-12T01:40:53.847Z,99.90
2022-12-12T01:43:22.628Z,99.90
2022-12-12T01:45:59.410Z,99.90
2022-12-12T01:48:43.844Z,99.90
2022-12-12T01:51:17.456Z,99.90
2022-12-12T01:53:45.806Z,99.90
2022-12-12T01:56:16.896Z,99.90
2022-12-12T01:58:46.635Z,99.90
2022-12-12T02:01:15.161Z,99.90
2022-12-12T02:03:42.817Z,99.90
2022-12-12T02:06:14.697Z,99.90
2022-12-12T02:08:43.186Z,99.90
2022-12-12T02:11:10.487Z,99.90
2022-12-12T02:13:37.724Z,99.90
2022-12-12T02:16:42.608Z,99.90
2022-12-12T02:19:21.622Z,99.90
2022-12-12T02:22:08.259Z,99.90
2022-12-12T02:25:06.747Z,99.90
2022-12-12T02:28:04.408Z,99.90
2022-12-12T02:30:48.609Z,99.90
2022-12-12T02:33:28.605Z,99.90
2022-12-12T02:36:18.787Z,99.90
2022-12-12T02:39:02.321Z,99.90
2022-12-12T02:41:42.520Z,99.90
2022-12-12T02:44:17.627Z,99.90
2022-12-12T02:47:06.397Z,99.90
2022-12-12T02:49:50.248Z,99.90
2022-12-12T02:52:17.975Z,99.90
2022-12-12T02:54:45.235Z,99.90
2022-12-12T02:57:21.747Z,99.90
2022-12-12T02:59:55.516Z,99.90
2022-12-12T03:03:18.987Z,99.90
2022-12-12T03:06:49.303Z,99.90
2022-12-12T03:09:38.352Z,99.90
2022-12-12T03:12:16.708Z,99.90
2022-12-12T03:15:05.880Z,99.90
2022-12-12T03:18:04.873Z,99.90
2022-12-12T03:20:49.772Z,99.90
2022-12-12T03:23:21.986Z,99.90
2022-12-12T03:26:12.064Z,99.90
2022-12-12T03:28:45.986Z,99.90
2022-12-12T03:31:14.708Z,99.90
2022-12-12T03:33:54.990Z,99.90
2022-12-12T03:36:27.811Z,99.90
2022-12-12T03:39:07.564Z,99.90
2022-12-12T03:41:40.745Z,99.90
2022-12-12T03:44:14.318Z,99.90
2022-12-12T03:46:48.890Z,99.90
2022-12-12T03:49:32.099Z,99.90
2022-12-12T03:52:25.744Z,99.90
2022-12-12T03:55:15.625Z,99.90
2022-12-12T03:57:52.205Z,99.90
2022-12-12T04:00:19.775Z,99.90
2022-12-12T04:02:56.569Z,99.90
2022-12-12T04:05:23.850Z,99.90
2022-12-12T04:08:15.273Z,99.90
2022-12-12T04:11:06.495Z,99.90
2022-12-12T04:13:59.700Z,99.90
2022-12-12T04:16:32.740Z,99.90
2022-12-12T04:19:12.369Z,99.90
2022-12-12T04:22:04.125Z,99.90
2022-12-12T04:25:02.496Z,99.90
2022-12-12T04:27:44.713Z,99.90
2022-12-12T04:30:14.383Z,99.90
2022-12-12T04:32:57.150Z,99.90
2022-12-12T04:35:38.810Z,99.90
2022-12-12T04:38:13.180Z,99.90
2022-12-12T04:40:45.208Z,99.90
2022-12-12T04:43:19.513Z,99.90
2022-12-12T04:45:55.144Z,99.90
2022-12-12T04:48:29.269Z,99.90
2022-12-12T04:50:59.314Z,99.90
2022-12-12T04:53:37.374Z,99.90
2022-12-12T04:56:11.076Z,99.90
2022-12-12T04:58:39.298Z,99.90
2022-12-12T05:01:21.906Z,99.90
2022-12-12T05:03:58.996Z,99.90
2022-12-12T05:06:36.935Z,99.90
2022-12-12T05:09:04.495Z,99.90
2022-12-12T05:11:33.156Z,99.90
2022-12-12T05:14:00.414Z,99.90
2022-12-12T05:16:36.016Z,99.90
2022-12-12T05:19:03.511Z,99.90
2022-12-12T05:21:30.468Z,99.90
2022-12-12T05:23:57.796Z,99.90
2022-12-12T05:26:27.438Z,99.90
2022-12-12T05:28:55.306Z,99.90
2022-12-12T05:31:22.873Z,99.90
2022-12-12T05:33:50.438Z,99.90
2022-12-12T05:36:17.845Z,99.90
2022-12-12T05:38:45.588Z,99.90
2022-12-12T05:41:12.636Z,99.90
2022-12-12T05:43:40.033Z,99.90
2022-12-12T05:46:07.421Z,99.90
2022-12-12T05:48:34.757Z,99.90
2022-12-12T05:51:03.260Z,99.90
2022-12-12T05:53:30.880Z,99.90
2022-12-12T05:55:58.189Z,99.90
2022-12-12T05:58:25.420Z,99.90
2022-12-12T06:00:52.532Z,99.90
2022-12-12T06:03:19.975Z,99.90
2022-12-12T06:05:47.328Z,99.90
2022-12-12T06:08:14.757Z,99.90
2022-12-12T06:10:42.162Z,99.90
2022-12-12T06:13:09.140Z,99.90
2022-12-12T06:15:40.247Z,99.20
2022-12-12T06:18:08.883Z,99.70
2022-12-12T06:20:36.398Z,99.20
2022-12-12T06:23:03.557Z,98.60
2022-12-12T06:25:31.609Z,99.70
2022-12-12T06:27:59.244Z,98.60
2022-12-12T06:30:26.900Z,96.80
2022-12-12T06:32:53.968Z,95.00
2022-12-12T06:35:21.295Z,93.10
2022-12-12T06:37:48.581Z,95.20
2022-12-12T06:40:16.424Z,97.30
2022-12-12T06:42:47.932Z,99.20
2022-12-12T06:45:17.090Z,98.30
2022-12-12T06:47:44.304Z,96.80
2022-12-12T06:50:12.716Z,93.50
2022-12-12T06:52:39.700Z,91.10
2022-12-12T06:55:07.454Z,91.50
2022-12-12T06:57:34.883Z,90.70
2022-12-12T07:00:03.164Z,92.60
2022-12-12T07:02:30.584Z,92.00
2022-12-12T07:04:58.471Z,91.30
2022-12-12T07:07:25.581Z,91.20
2022-12-12T07:09:52.933Z,89.10
2022-12-12T07:12:20.049Z,90.30
2022-12-12T07:14:47.306Z,88.70
2022-12-12T07:17:14.263Z,84.20
2022-12-12T07:19:41.544Z,80.50
2022-12-12T07:22:10.430Z,81.90
2022-12-12T07:24:38.437Z,82.80
2022-12-12T07:27:06.875Z,86.30
2022-12-12T07:29:34.238Z,83.30
2022-12-12T07:32:01.247Z,82.90
2022-12-12T07:34:31.454Z,84.40
2022-12-12T07:37:02.837Z,85.40
2022-12-12T07:39:34.623Z,85.50
2022-12-12T07:42:01.664Z,87.50
2022-12-12T07:44:29.156Z,84.60
2022-12-12T07:46:59.027Z,86.40
2022-12-12T07:49:28.366Z,81.20
2022-12-12T07:51:55.409Z,74.40
2022-12-12T07:54:22.837Z,63.70
2022-12-12T07:56:50.039Z,61.00
2022-12-12T07:59:17.530Z,51.60
2022-12-12T08:01:44.617Z,44.60
2022-12-12T08:04:13.398Z,45.90
2022-12-12T08:06:40.343Z,42.00
2022-12-12T08:09:07.680Z,36.70
2022-12-12T08:11:35.721Z,28.10
2022-12-12T08:14:11.154Z,26.60
2022-12-12T08:16:40.044Z,33.60
2022-12-12T08:19:07.864Z,38.10
2022-12-12T08:21:34.984Z,29.80
2022-12-12T08:24:03.000Z,32.10
2022-12-12T08:26:32.020Z,40.20
2022-12-12T08:28:59.562Z,41.90
2022-12-12T08:31:28.015Z,42.10
2022-12-12T08:33:55.949Z,31.10
2022-12-12T08:36:26.737Z,29.70
2022-12-12T08:38:54.012Z,19.60
2022-12-12T08:41:22.517Z,18.80
2022-12-12T08:43:50.109Z,20.10
2022-12-12T08:46:19.588Z,3.00
2022-12-12T08:48:48.240Z,12.40
2022-12-12T08:51:16.497Z,5.80
2022-12-12T08:53:45.799Z,19.50
2022-12-12T08:56:13.172Z,16.90
2022-12-12T08:58:40.750Z,22.60
2022-12-12T09:01:25.465Z,15.30
2022-12-12T09:03:55.123Z,14.70
2022-12-12T09:06:23.537Z,23.20
2022-12-12T09:08:50.960Z,9.90
2022-12-12T09:11:18.729Z,11.80
2022-12-12T09:13:46.198Z,4.90
2022-12-12T09:16:13.868Z,4.30
2022-12-12T09:18:48.110Z,1.00
2022-12-12T09:21:17.357Z,4.00
2022-12-12T09:23:44.881Z,1.00
2022-12-12T09:26:12.293Z,1.00
2022-12-12T09:28:40.154Z,1.00
2022-12-12T09:31:08.885Z,1.00
2022-12-12T09:33:36.573Z,1.00
2022-12-12T09:36:06.273Z,1.00
2022-12-12T09:38:33.870Z,1.00
2022-12-12T09:41:09.841Z,1.00
2022-12-12T09:43:44.586Z,1.00
2022-12-12T09:46:32.053Z,1.00
2022-12-12T09:49:16.138Z,1.00
2022-12-12T09:51:47.152Z,1.00
2022-12-12T09:54:23.233Z,1.00
2022-12-12T09:56:53.417Z,1.00
2022-12-12T09:59:37.719Z,1.00
2022-12-12T10:02:23.287Z,1.00
2022-12-12T10:04:58.688Z,1.00
2022-12-12T10:07:31.967Z,1.00
2022-12-12T10:10:33.611Z,1.00
2022-12-12T10:13:03.078Z,1.00
2022-12-12T10:15:43.123Z,1.00
2022-12-12T10:18:52.375Z,1.00
2022-12-12T10:21:26.137Z,1.00
2022-12-12T10:24:50.809Z,1.00
2022-12-12T10:27:18.534Z,1.00
2022-12-12T10:30:34.852Z,1.00
2022-12-12T10:33:10.314Z,1.00
2022-12-12T10:35:50.731Z,1.00
2022-12-12T10:38:47.875Z,1.00
2022-12-12T10:41:51.332Z,1.00
2022-12-12T10:45:06.454Z,1.00
2022-12-12T10:47:35.145Z,1.00
2022-12-12T10:50:13.313Z,1.00
2022-12-12T10:52:41.281Z,1.00
2022-12-12T10:55:25.687Z,1.00
2022-12-12T10:58:04.525Z,1.00
2022-12-12T11:01:10.652Z,1.00
2022-12-12T11:03:51.136Z,3.20
2022-12-12T11:06:38.300Z,4.80
2022-12-12T11:09:24.187Z,13.90
2022-12-12T11:12:16.665Z,26.70
2022-12-12T11:14:48.504Z,25.00
2022-12-12T11:17:27.750Z,19.70
2022-12-12T11:19:57.974Z,22.30
2022-12-12T11:22:27.479Z,32.30
2022-12-12T11:24:55.110Z,28.10
2022-12-12T11:27:30.680Z,39.00
2022-12-12T11:33:21.942Z,36.10
2022-12-12T11:35:55.340Z,38.10
2022-12-12T11:38:28.186Z,48.70
2022-12-12T11:41:04.652Z,43.10
2022-12-12T11:43:49.517Z,38.10
2022-12-12T11:46:30.581Z,47.40
2022-12-12T11:49:01.152Z,46.70
2022-12-12T11:51:38.497Z,45.20
2022-12-12T11:54:23.097Z,42.10
2022-12-12T11:57:03.400Z,46.10
2022-12-12T11:59:55.312Z,46.70
2022-12-12T12:02:47.821Z,50.20
2022-12-12T12:05:52.409Z,49.10
2022-12-12T12:08:54.855Z,48.30
2022-12-12T12:11:37.375Z,47.70
2022-12-12T12:14:13.396Z,44.30
2022-12-12T12:17:18.595Z,35.50
2022-12-12T12:19:49.840Z,40.70
2022-12-12T12:22:48.880Z,36.00
2022-12-12T12:25:47.897Z,25.60
2022-12-12T12:28:33.705Z,43.90
2022-12-12T12:31:19.437Z,54.90
2022-12-12T12:34:19.618Z,51.80
2022-12-12T12:36:58.624Z,47.00
2022-12-12T12:40:01.102Z,49.00
2022-12-12T12:43:07.262Z,51.40
2022-12-12T12:45:40.960Z,52.20
2022-12-12T12:48:23.220Z,61.20
2022-12-12T12:51:01.577Z,52.70
2022-12-12T12:53:36.826Z,55.10
2022-12-12T12:56:38.564Z,59.10
2022-12-12T12:59:17.619Z,62.40
2022-12-12T13:01:49.030Z,65.90
2022-12-12T13:07:40.508Z,69.60
2022-12-12T13:10:27.210Z,67.20
2022-12-12T13:13:06.318Z,65.80
2022-12-12T13:15:40.351Z,71.70
2022-12-12T13:18:26.069Z,78.40
2022-12-12T13:21:03.963Z,82.10
2022-12-12T13:23:53.245Z,86.10
2022-12-12T13:26:45.576Z,88.30
2022-12-12T13:30:12.493Z,85.20
2022-12-12T13:33:11.093Z,83.60
2022-12-12T13:35:45.921Z,78.20
2022-12-12T13:38:26.465Z,75.10
2022-12-12T13:41:03.110Z,77.60
2022-12-12T13:43:30.632Z,83.00
2022-12-12T13:45:58.295Z,84.50
2022-12-12T13:48:28.476Z,82.70
2022-12-12T13:51:30.963Z,85.50
2022-12-12T13:54:12.265Z,86.80
2022-12-12T13:57:14.659Z,91.20
2022-12-12T13:59:53.823Z,98.10
2022-12-12T14:02:38.977Z,96.70
2022-12-12T14:05:28.236Z,95.20
2022-12-12T14:08:21.525Z,94.80
2022-12-12T14:10:48.569Z,94.10
2022-12-12T14:13:22.079Z,91.20
2022-12-12T14:15:58.151Z,90.50
2022-12-12T14:18:30.537Z,90.30
2022-12-12T14:21:12.584Z,91.10
2022-12-12T14:23:46.516Z,92.60
2022-12-12T14:26:28.596Z,93.50
2022-12-12T14:29:18.914Z,94.30
2022-12-12T14:32:04.519Z,94.20
2022-12-12T14:34:37.626Z,94.50
2022-12-12T14:37:37.407Z,95.50
2022-12-12T14:40:25.386Z,96.30
2022-12-12T14:43:23.215Z,96.20
2022-12-12T14:45:50.982Z,97.30
2022-12-12T14:48:28.765Z,96.60
2022-12-12T14:51:16.828Z,96.40
2022-12-12T14:53:50.733Z,96.90
2022-12-12T14:56:21.878Z,97.90
2022-12-12T14:59:04.966Z,96.70
2022-12-12T15:01:32.493Z,97.30
2022-12-12T15:04:02.863Z,96.60
2022-12-12T15:06:37.388Z,96.00
2022-12-12T15:09:31.673Z,95.00
2022-12-12T15:12:11.180Z,92.10
2022-12-12T15:14:40.254Z,84.20
2022-12-12T15:17:28.927Z,87.20
2022-12-12T15:20:00.586Z,76.00
2022-12-12T15:22:34.160Z,88.00
2022-12-12T15:25:04.288Z,76.50
2022-12-12T15:27:43.468Z,73.20
2022-12-12T15:30:31.094Z,71.30
2022-12-12T15:33:00.719Z,72.50
2022-12-12T15:35:28.648Z,74.20
2022-12-12T15:38:01.709Z,80.30
2022-12-12T15:40:36.490Z,81.20
2022-12-12T15:43:23.411Z,82.80
2022-12-12T15:45:56.094Z,89.40
2022-12-12T15:48:25.697Z,93.10
2022-12-12T15:51:06.108Z,95.80
2022-12-12T15:53:39.191Z,97.40
2022-12-12T15:56:22.877Z,98.40
2022-12-12T15:59:15.221Z,97.50
2022-12-12T16:01:43.096Z,95.40
2022-12-12T16:04:10.803Z,92.40
2022-12-12T16:06:42.049Z,93.10
2022-12-12T16:09:32.758Z,92.30
2022-12-12T16:12:00.275Z,87.80
2022-12-12T16:14:40.232Z,84.00
2022-12-12T16:17:14.317Z,74.80
2022-12-12T16:19:54.757Z,79.50
2022-12-12T16:22:28.836Z,79.70
2022-12-12T16:25:10.912Z,83.90
2022-12-12T16:27:38.481Z,86.40
2022-12-12T16:30:06.527Z,85.30
2022-12-12T16:32:34.192Z,84.40
2022-12-12T16:35:01.695Z,84.40
2022-12-12T16:37:29.212Z,85.10
2022-12-12T16:39:56.716Z,82.00
2022-12-12T16:42:24.176Z,84.30
2022-12-12T16:44:52.038Z,86.60
2022-12-12T16:47:25.711Z,84.50
2022-12-12T16:49:53.219Z,85.90
2022-12-12T16:52:21.420Z,82.20
2022-12-12T16:54:53.643Z,80.00
2022-12-12T16:57:22.043Z,79.60
2022-12-12T16:59:49.447Z,83.90
2022-12-12T17:02:24.194Z,86.00
2022-12-12T17:04:51.756Z,81.90
2022-12-12T17:07:19.021Z,77.20
2022-12-12T17:09:46.537Z,78.70
2022-12-12T17:12:15.305Z,79.60
2022-12-12T17:14:42.686Z,81.70
2022-12-12T17:17:13.672Z,85.60
2022-12-12T17:19:41.376Z,82.20
2022-12-12T17:22:08.450Z,78.40
2022-12-12T17:24:35.873Z,83.60
2022-12-12T17:27:03.022Z,86.80
2022-12-12T17:29:33.336Z,90.60
2022-12-12T17:32:00.434Z,90.50
2022-12-12T17:34:27.821Z,90.10
2022-12-12T17:36:54.760Z,88.90
2022-12-12T17:39:23.011Z,90.20
2022-12-12T17:41:51.412Z,90.50
2022-12-12T17:44:19.133Z,89.60
2022-12-12T17:46:46.233Z,90.20
2022-12-12T17:49:13.673Z,89.20
2022-12-12T17:51:40.749Z,90.50
2022-12-12T17:54:08.142Z,90.80
2022-12-12T17:56:35.587Z,90.50
2022-12-12T17:59:09.715Z,90.90
2022-12-12T18:01:37.366Z,89.30
2022-12-12T18:04:05.238Z,87.30
2022-12-12T18:06:36.054Z,88.10
2022-12-12T18:09:03.943Z,91.00
2022-12-12T18:11:35.931Z,91.00
2022-12-12T18:14:06.703Z,91.70
2022-12-12T18:16:35.496Z,87.10
2022-12-12T18:19:02.976Z,87.30
2022-12-12T18:24:23.514Z,67.90
2022-12-12T18:26:55.438Z,71.70
2022-12-12T18:29:23.948Z,67.50
2022-12-12T18:31:54.393Z,67.30
2022-12-12T18:34:23.696Z,74.00
2022-12-12T18:36:50.935Z,81.20
2022-12-12T18:39:18.348Z,84.70
2022-12-12T18:41:45.384Z,86.40
2022-12-12T18:44:14.951Z,87.30
2022-12-12T18:46:43.692Z,87.80
2022-12-12T18:49:15.904Z,84.90
2022-12-12T18:51:47.425Z,83.90
2022-12-12T18:54:16.669Z,83.30
2022-12-12T18:56:45.920Z,80.20
2022-12-12T18:59:14.408Z,76.10
2022-12-12T19:01:41.607Z,78.00
2022-12-12T19:04:12.573Z,81.60
2022-12-12T19:06:42.891Z,82.00
2022-12-12T19:09:15.955Z,83.10
2022-12-12T19:11:43.593Z,83.00
2022-12-12T19:14:12.756Z,83.60
2022-12-12T19:16:40.412Z,86.20
2022-12-12T19:19:09.611Z,86.40
2022-12-12T19:21:38.455Z,89.20
2022-12-12T19:24:09.276Z,89.00
2022-12-12T19:26:38.206Z,90.90
2022-12-12T19:29:09.717Z,93.60
2022-12-12T19:31:37.623Z,93.00
2022-12-12T19:34:06.823Z,93.10
2022-12-12T19:36:35.770Z,93.80
2022-12-12T19:39:05.990Z,94.80
2022-12-12T19:41:33.205Z,96.10
2022-12-12T19:44:01.968Z,95.50
2022-12-12T19:46:34.297Z,93.60
2022-12-12T19:49:04.648Z,94.30
2022-12-12T19:51:35.935Z,93.70
2022-12-12T19:54:07.941Z,91.60
2022-12-12T19:56:37.493Z,88.50
2022-12-12T19:59:05.370Z,82.30
2022-12-12T20:01:36.324Z,83.10
2022-12-12T20:04:09.178Z,82.30
2022-12-12T20:06:42.155Z,81.50
2022-12-12T20:09:11.405Z,85.20
2022-12-12T20:11:40.033Z,85.80
2022-12-12T20:14:08.040Z,83.30
2022-12-12T20:16:35.198Z,81.10
2022-12-12T20:19:05.551Z,78.50
2022-12-12T20:24:24.125Z,65.60
2022-12-12T20:26:54.306Z,56.10
2022-12-12T20:29:22.377Z,48.60
2022-12-12T20:31:49.918Z,48.10
2022-12-12T20:34:21.770Z,44.60
2022-12-12T20:36:50.250Z,39.50
2022-12-12T20:39:22.168Z,40.80
2022-12-12T20:41:53.327Z,42.70
2022-12-12T20:44:23.332Z,39.70
2022-12-12T20:46:50.428Z,42.50
2022-12-12T20:49:19.833Z,36.60
2022-12-12T20:51:56.437Z,39.20
2022-12-12T20:54:25.513Z,44.90
2022-12-12T20:56:54.350Z,40.20
2022-12-12T20:59:22.629Z,32.40
2022-12-12T21:01:49.871Z,29.80
2022-12-12T21:04:17.443Z,29.20
2022-12-12T21:06:48.658Z,26.10
2022-12-12T21:09:23.182Z,24.50
2022-12-12T21:11:52.321Z,19.20
2022-12-12T21:14:19.756Z,25.50
2022-12-12T21:16:46.773Z,27.30
2022-12-12T21:19:17.119Z,22.50
2022-12-12T21:21:44.496Z,20.00
2022-12-12T21:24:13.422Z,21.50
2022-12-12T21:26:40.525Z,16.50
2022-12-12T21:29:09.620Z,14.80
2022-12-12T21:31:41.219Z,15.00
2022-12-12T21:34:10.914Z,1.00
2022-12-12T21:36:37.946Z,1.00
2022-12-12T21:39:07.185Z,1.00
2022-12-12T21:41:35.161Z,1.00
2022-12-12T21:44:02.553Z,1.00
2022-12-12T21:46:31.200Z,1.00
2022-12-12T21:49:17.325Z,1.00
2022-12-12T21:51:45.112Z,1.00
2022-12-12T21:54:14.370Z,1.00
2022-12-12T21:56:41.879Z,1.00
2022-12-12T21:59:10.768Z,1.00
2022-12-12T22:01:38.222Z,1.00
2022-12-12T22:04:05.976Z,1.00
2022-12-12T22:06:35.663Z,1.00
2022-12-12T22:09:06.248Z,1.00
2022-12-12T22:11:47.470Z,1.00
2022-12-12T22:14:19.106Z,1.00
2022-12-12T22:16:46.286Z,1.00
2022-12-12T22:19:14.941Z,5.20
2022-12-12T22:21:43.819Z,11.50
2022-12-12T22:24:11.259Z,8.50
2022-12-12T22:26:40.981Z,5.40
2022-12-12T22:29:12.614Z,1.00
2022-12-12T22:31:41.321Z,1.00
2022-12-12T22:34:16.163Z,1.00
2022-12-12T22:36:44.758Z,1.00
2022-12-12T22:39:25.388Z,1.00
2022-12-12T22:41:54.862Z,1.00
2022-12-12T22:44:23.311Z,1.00
2022-12-12T22:46:52.845Z,1.00
2022-12-12T22:49:25.831Z,1.00
2022-12-12T22:51:55.182Z,1.00
2022-12-12T22:54:22.873Z,1.00
2022-12-12T22:56:50.165Z,1.00
2022-12-12T22:59:17.461Z,1.00
2022-12-12T23:01:44.460Z,1.00
2022-12-12T23:04:15.517Z,1.00
2022-12-12T23:06:43.757Z,1.00
2022-12-12T23:09:20.768Z,1.00
2022-12-12T23:11:49.456Z,1.00
2022-12-12T23:14:19.721Z,1.00
2022-12-12T23:16:47.352Z,1.00
2022-12-12T23:19:18.921Z,1.00
2022-12-12T23:21:46.438Z,1.00
2022-12-12T23:24:14.249Z,1.00
2022-12-12T23:26:42.178Z,5.30
2022-12-12T23:29:12.772Z,9.70
2022-12-12T23:31:40.345Z,9.40
2022-12-12T23:34:15.120Z,20.20
2022-12-12T23:36:44.014Z,20.80
2022-12-12T23:39:12.499Z,23.90
2022-12-12T23:41:40.187Z,21.80
2022-12-12T23:44:08.476Z,22.40
2022-12-12T23:46:36.427Z,25.40
2022-12-12T23:49:08.127Z,27.70
2022-12-12T23:51:42.087Z,28.30
2022-12-12T23:54:11.930Z,31.80
2022-12-12T23:56:39.883Z,29.90
2022-12-12T23:59:11.653Z,29.70
